Terminal Aerodrome Forecast
Issued by NWS Wilmington, OH

Current Version | Previous Version | Graphics & Text | Print | Product List | Glossary On
Versions: 1 2 3 4 5 6 7 8 9 10 11 12 13 14 15 16 17 18 19 20 21 22 23 24 25 26 27 28 29 30 31 32 33 34 35 36
334
FTUS41 KILN 280255 AAB
TAFCVG
TAF AMD
KCVG 280255Z 2803/2906 04008KT 3SM -RA BR VCTS OVC006CB
      TEMPO 2803/2807 -TSRA BR SCT006 OVC025CB
     FM280700 17008KT 3SM BR VCSH OVC006
     FM281400 24008KT P6SM FEW006 BKN022
     FM281800 26010KT P6SM BKN035
     FM290000 27006KT P6SM VCSH BKN035=

USA.gov is the U.S. government's official web portal to all federal, state and local government web resources and services.